Time;durP1;ratioP1;P1;durP2;ratioP2;P2;SDS_P1;SDS_P2;PMS_P1;PMS_P2;Temp;Humidity;BMP_temperature;BMP_pressure;BME280_temperature;BME280_humidity;BME280_pressure;Samples;Min_cycle;Max_cycle;Signal;HPM_P1;HPM_P2
2022/05/26 00:00:11;;;;;;;11.90;1.62;;;;;;;14.29;58.32;100731.17;1789237;80;21382;-42
2022/05/26 00:02:39;;;;;;;4.53;2.02;;;;;;;14.30;58.00;100736.79;1789317;80;20896;-42
2022/05/26 00:05:07;;;;;;;3.02;1.27;;;;;;;14.30;57.81;100728.97;1789313;80;21232;-42
2022/05/26 00:07:34;;;;;;;7.05;1.75;;;;;;;14.30;57.79;100727.67;1789404;80;20893;-42
2022/05/26 00:10:01;;;;;;;4.12;1.20;;;;;;;14.29;57.50;100729.88;1789266;80;20963;-42
2022/05/26 00:12:28;;;;;;;3.72;1.35;;;;;;;14.29;57.65;100729.88;1789358;80;20861;-42
2022/05/26 00:14:56;;;;;;;3.17;1.60;;;;;;;14.27;57.54;100722.53;1789191;80;20876;-43
2022/05/26 00:17:23;;;;;;;2.15;1.10;;;;;;;14.26;57.48;100723.89;1789143;79;22028;-43
2022/05/26 00:19:51;;;;;;;5.45;1.60;;;;;;;14.24;57.71;100722.63;1789050;80;20873;-42
2022/05/26 00:22:18;;;;;;;1.62;1.20;;;;;;;14.22;57.87;100726.59;1789338;80;20928;-43
2022/05/26 00:24:45;;;;;;;7.30;1.65;;;;;;;14.21;58.06;100729.22;1789176;80;20975;-42
2022/05/26 00:27:11;;;;;;;3.15;1.10;;;;;;;14.19;57.80;100725.81;1789246;80;20932;-42
2022/05/26 00:29:39;;;;;;;2.52;1.47;;;;;;;14.17;57.78;100725.88;1789270;80;21234;-43
2022/05/26 00:32:07;;;;;;;3.75;1.32;;;;;;;14.18;58.07;100718.47;1788985;80;20970;-42
2022/05/26 00:34:34;;;;;;;4.08;1.40;;;;;;;14.17;57.82;100715.47;1785839;80;20924;-42
2022/05/26 00:37:02;;;;;;;1.37;1.27;;;;;;;14.17;57.71;100704.19;1783961;80;20936;-42
2022/05/26 00:39:29;;;;;;;4.53;1.72;;;;;;;14.17;57.20;100704.19;1783783;80;20976;-41
2022/05/26 00:42:02;;;;;;;6.17;1.45;;;;;;;14.17;57.43;100702.88;1784032;80;22058;-42
2022/05/26 00:44:29;;;;;;;2.22;1.45;;;;;;;14.17;56.99;100705.05;1783520;80;20951;-42
2022/05/26 00:47:21;;;;;;;2.80;1.50;;;;;;;14.16;56.88;100702.05;1783612;80;21497;-42
2022/05/26 00:50:10;;;;;;;5.90;1.70;;;;;;;14.14;56.73;100701.67;1783330;80;20888;-42
2022/05/26 00:52:45;;;;;;;2.25;1.27;;;;;;;14.13;56.52;100694.77;1782598;80;20909;-41
2022/05/26 00:55:28;;;;;;;6.97;1.42;;;;;;;14.12;56.59;100690.46;1783553;80;21080;-42
2022/05/26 00:58:07;;;;;;;5.00;1.40;;;;;;;14.11;56.23;100690.89;1783171;80;20885;-42
2022/05/26 01:00:38;;;;;;;4.20;1.70;;;;;;;14.06;56.48;100679.34;1781244;80;20936;-41
2022/05/26 01:03:28;;;;;;;5.90;1.67;;;;;;;14.04;56.31;100677.66;1753084;80;20940;-41
2022/05/26 01:06:02;;;;;;;1.72;1.20;;;;;;;13.98;56.46;100672.19;1783330;80;21430;-42
2022/05/26 01:08:55;;;;;;;5.70;1.55;;;;;;;13.90;56.48;100672.44;1782256;80;21498;-42
2022/05/26 01:11:27;;;;;;;3.37;1.70;;;;;;;13.85;56.52;100673.45;1783336;80;20964;-42
2022/05/26 01:14:03;;;;;;;2.95;1.45;;;;;;;13.77;57.07;100674.97;1783257;80;20856;-42
2022/05/26 01:17:08;;;;;;;10.43;1.67;;;;;;;13.70;57.60;100674.27;1776710;79;20991;-42
2022/05/26 01:19:57;;;;;;;2.80;1.35;;;;;;;13.64;57.70;100670.55;1783136;80;21058;-41
2022/05/26 01:23:02;;;;;;;5.12;1.42;;;;;;;13.57;58.12;100676.83;1783405;80;21269;-42
2022/05/26 01:25:43;;;;;;;2.42;1.55;;;;;;;13.46;58.25;100659.75;1783365;80;21387;-42
2022/05/26 01:28:48;;;;;;;2.00;1.47;;;;;;;13.36;58.35;100656.98;1783463;80;20991;-42
2022/05/26 01:31:43;;;;;;;7.40;1.72;;;;;;;13.28;58.52;100657.64;1783538;80;21430;-42
2022/05/26 01:34:27;;;;;;;;;;;;;;;13.17;58.51;100648.36;1785873;80;20896;-42
2022/05/26 01:37:37;;;;;;;9.55;1.62;;;;;;;13.08;58.28;100650.74;1783361;80;21135;-42
2022/05/26 01:40:19;;;;;;;6.83;1.52;;;;;;;13.05;58.16;100651.29;1782742;80;20956;-42
2022/05/26 01:42:51;;;;;;;4.20;1.37;;;;;;;13.00;58.40;100655.73;1783771;80;21434;-42
2022/05/26 01:45:48;;;;;;;2.60;1.27;;;;;;;12.96;58.41;100659.30;1783245;80;20932;-42
2022/05/26 01:48:45;;;;;;;8.13;1.40;;;;;;;12.92;58.53;100654.18;1783380;80;20960;-42
2022/05/26 01:51:34;;;;;;;5.20;1.20;;;;;;;12.88;58.57;100649.96;1783416;80;21174;-42
2022/05/26 01:54:50;;;;;;;2.17;1.35;;;;;;;12.82;59.01;100649.25;1783217;80;20975;-42
2022/05/26 01:57:28;;;;;;;6.92;1.67;;;;;;;12.79;58.72;100651.03;1783242;80;20889;-42
2022/05/26 02:00:02;;;;;;;2.62;1.75;;;;;;;12.74;58.83;100646.84;1782925;80;21414;-42
2022/05/26 02:02:38;;;;;;;1.95;1.40;;;;;;;12.71;59.25;100650.37;1782098;80;20924;-42
2022/05/26 02:05:11;;;;;;;2.45;1.50;;;;;;;12.68;59.04;100653.48;1783214;80;21380;-42
2022/05/26 02:07:43;;;;;;;2.37;1.35;;;;;;;12.63;59.12;100651.86;1778948;80;20971;-43
2022/05/26 02:10:18;;;;;;;2.80;1.30;;;;;;;12.64;59.23;100648.83;1783078;80;21023;-43
2022/05/26 02:12:52;;;;;;;1.80;1.50;;;;;;;12.64;59.08;100656.16;1783181;80;20861;-42
2022/05/26 02:15:34;;;;;;;3.85;1.22;;;;;;;12.63;58.98;100652.28;1783464;80;21007;-42
2022/05/26 02:18:08;;;;;;;6.30;1.57;;;;;;;12.63;58.50;100654.88;1783184;80;21232;-43
2022/05/26 02:20:43;;;;;;;1.77;1.32;;;;;;;12.62;58.47;100646.25;1782178;80;20849;-42
2022/05/26 02:23:40;;;;;;;2.80;1.35;;;;;;;12.62;58.48;100650.58;1782075;80;21422;-43
2022/05/26 02:26:07;;;;;;;8.60;1.50;;;;;;;12.61;58.57;100650.17;1782971;80;20956;-41
2022/05/26 02:31:04;;;;;;;1.65;1.40;;;;;;;12.59;57.81;100645.47;1744765;80;22041;-40
2022/05/26 02:33:31;;;;;;;4.50;1.50;;;;;;;12.61;57.72;100656.23;1783214;80;20968;-40
2022/05/26 02:36:00;;;;;;;4.65;1.35;;;;;;;12.63;57.92;100659.65;1775457;80;21439;-41
2022/05/26 02:38:27;;;;;;;2.98;1.20;;;;;;;12.62;57.74;100659.67;1775128;80;20929;-41
2022/05/26 02:40:54;;;;;;;1.52;1.10;;;;;;;12.63;57.82;100657.05;1775108;80;20988;-41
2022/05/26 02:43:27;;;;;;;5.53;1.40;;;;;;;12.62;57.63;100656.64;1775006;80;21256;-41
2022/05/26 02:46:19;;;;;;;1.10;0.98;;;;;;;12.64;57.58;100651.43;1774927;80;20988;-41
2022/05/26 02:49:06;;;;;;;2.87;1.25;;;;;;;12.66;57.99;100654.84;1774605;80;20956;-41
2022/05/26 02:51:40;;;;;;;8.00;1.65;;;;;;;12.67;57.67;100651.78;1774924;80;20975;-41
2022/05/26 02:54:35;;;;;;;2.47;1.27;;;;;;;12.70;57.18;100660.36;1774901;80;21505;-41
2022/05/26 02:57:37;;;;;;;2.30;1.15;;;;;;;12.73;57.25;100658.98;1775010;80;21937;-40
2022/05/26 03:00:31;;;;;;;3.58;1.45;;;;;;;12.77;57.45;100666.27;1774432;80;20964;-42
2022/05/26 03:03:02;;;;;;;2.30;1.30;;;;;;;12.77;57.52;100661.91;1675650;85;21506;-41
2022/05/26 03:05:54;;;;;;;6.45;1.30;;;;;;;12.84;57.34;100661.75;1677190;85;20932;-41
2022/05/26 03:08:23;;;;;;;1.82;1.30;;;;;;;12.89;56.53;100655.56;1732352;80;20881;-41
2022/05/26 03:10:53;;;;;;;4.20;1.30;;;;;;;12.99;56.51;100657.48;1774987;80;21233;-41
2022/05/26 03:13:20;;;;;;;1.00;1.00;;;;;;;13.11;56.58;100654.16;1774917;80;20924;-41
2022/05/26 03:15:47;;;;;;;2.17;1.15;;;;;;;13.23;56.09;100658.58;1774902;80;20885;-41
2022/05/26 03:18:15;;;;;;;1.37;1.02;;;;;;;13.36;55.51;100659.11;1775017;80;20940;-41
2022/05/26 03:20:42;;;;;;;1.15;1.05;;;;;;;13.50;55.62;100652.27;1774890;80;20893;-41
2022/05/26 03:23:09;;;;;;;2.95;1.07;;;;;;;13.65;55.53;100648.42;1775018;80;21214;-41
2022/05/26 03:25:37;;;;;;;2.87;0.98;;;;;;;13.82;54.93;100643.63;1774973;80;20869;-41
2022/05/26 03:28:05;;;;;;;3.60;1.10;;;;;;;13.99;54.45;100645.72;1774977;80;21438;-41
2022/05/26 03:30:32;;;;;;;5.33;1.02;;;;;;;14.19;54.20;100647.72;1774985;80;20936;-41
2022/05/26 03:32:59;;;;;;;3.15;1.20;;;;;;;14.32;53.69;100633.44;1775110;80;20972;-41
2022/05/26 03:40:56;;;;;;;1.22;0.80;;;;;;;14.66;52.80;100628.91;1748292;82;20888;-42
2022/05/26 03:43:30;;;;;;;1.72;0.88;;;;;;;14.74;52.18;100623.45;1766475;80;21038;-41
2022/05/26 03:46:01;;;;;;;3.47;0.75;;;;;;;14.82;52.39;100620.59;1749639;80;20988;-42
2022/05/26 03:48:27;;;;;;;1.20;1.10;;;;;;;14.88;51.39;100616.47;1774999;80;21553;-42
2022/05/26 03:50:55;;;;;;;2.05;0.93;;;;;;;14.85;52.03;100618.75;1774705;80;21474;-41
2022/05/26 03:53:23;;;;;;;11.12;1.70;;;;;;;14.87;51.56;100615.64;1752995;80;20944;-41
2022/05/26 03:55:50;;;;;;;2.67;1.00;;;;;;;14.87;51.07;100613.47;1774894;80;21450;-41
2022/05/26 03:58:17;;;;;;;3.33;0.80;;;;;;;14.91;51.76;100605.97;1774952;80;20987;-41
2022/05/26 04:00:44;;;;;;;2.45;0.95;;;;;;;14.97;51.76;100608.80;1774849;80;21337;-41
2022/05/26 04:03:13;;;;;;;1.98;0.98;;;;;;;15.04;51.52;100608.54;1753160;80;20905;-41
2022/05/26 04:05:40;;;;;;;1.42;1.10;;;;;;;15.15;51.15;100617.73;1774915;80;20984;-42
2022/05/26 04:08:08;;;;;;;1.67;0.90;;;;;;;15.29;52.15;100612.05;1774961;80;20979;-42
2022/05/26 04:10:35;;;;;;;1.75;1.00;;;;;;;15.44;50.58;100613.26;1752946;80;20881;-42
2022/05/26 04:13:03;;;;;;;4.08;0.90;;;;;;;15.58;50.93;100609.67;1775000;80;20913;-42
2022/05/26 04:15:30;;;;;;;3.52;0.88;;;;;;;15.68;50.26;100607.58;1774690;80;21058;-41
2022/05/26 04:17:57;;;;;;;2.55;1.15;;;;;;;15.76;49.91;100605.52;1775111;80;20968;-42
2022/05/26 04:20:25;;;;;;;2.70;0.90;;;;;;;15.79;50.06;100604.13;1775062;80;20897;-41
2022/05/26 04:22:52;;;;;;;3.50;0.90;;;;;;;15.75;50.09;100598.59;1753285;80;20948;-41
2022/05/26 04:25:20;;;;;;;2.85;0.70;;;;;;;15.71;50.30;100604.02;1775069;80;22019;-42
2022/05/26 04:27:47;;;;;;;3.67;1.00;;;;;;;15.58;49.53;100602.31;1775276;80;20974;-41
2022/05/26 04:30:15;;;;;;;2.15;0.90;;;;;;;15.50;50.34;100602.59;1775146;80;21514;-41
2022/05/26 04:32:43;;;;;;;1.27;0.82;;;;;;;15.48;50.68;100606.55;1775016;80;20956;-41
2022/05/26 04:35:10;;;;;;;3.60;0.90;;;;;;;15.60;50.88;100611.77;1775127;80;20979;-41
2022/05/26 04:37:38;;;;;;;0.90;0.90;;;;;;;15.75;50.47;100617.34;1775129;80;21145;-42
2022/05/26 04:40:07;;;;;;;0.80;0.78;;;;;;;15.93;50.86;100609.29;1774946;80;21019;-41
2022/05/26 04:42:34;;;;;;;2.10;0.80;;;;;;;16.13;49.67;100603.28;1774867;80;20932;-41
2022/05/26 04:45:02;;;;;;;1.67;0.60;;;;;;;16.31;49.97;100598.25;1775068;80;21525;-41
2022/05/26 04:47:29;;;;;;;3.20;0.70;;;;;;;16.40;49.34;100595.25;1775208;80;20952;-42
2022/05/26 04:49:56;;;;;;;2.87;0.68;;;;;;;16.47;48.99;100596.73;1775184;80;21095;-41
2022/05/26 04:52:24;;;;;;;2.42;1.00;;;;;;;16.61;49.35;100592.23;1775078;80;20929;-42
2022/05/26 04:54:56;;;;;;;2.55;0.98;;;;;;;16.72;48.54;100588.31;1774899;80;20925;-41
2022/05/26 04:57:23;;;;;;;2.55;0.50;;;;;;;16.80;48.43;100578.41;1774204;80;20928;-42
2022/05/26 04:59:50;;;;;;;4.03;0.72;;;;;;;16.85;48.40;100588.20;1775040;80;21556;-42
2022/05/26 05:02:19;;;;;;;2.52;0.88;;;;;;;16.86;48.92;100585.98;1775041;80;21258;-41
2022/05/26 05:04:48;;;;;;;1.40;0.88;;;;;;;16.94;48.25;100578.64;1774925;80;20873;-41
2022/05/26 05:07:17;;;;;;;5.75;0.93;;;;;;;17.05;48.17;100570.81;1775177;80;21015;-42
2022/05/26 05:09:45;;;;;;;1.17;0.70;;;;;;;17.07;49.20;100567.22;1775016;80;20909;-41
2022/05/26 05:12:15;;;;;;;1.85;0.90;;;;;;;17.22;49.25;100570.09;1775158;80;21506;-42
2022/05/26 05:14:47;;;;;;;4.55;0.78;;;;;;;17.24;48.46;100577.41;1775059;80;21243;-42
2022/05/26 05:17:14;;;;;;;7.28;1.05;;;;;;;17.22;48.92;100568.30;1773973;80;20933;-42
2022/05/26 05:19:41;;;;;;;4.47;0.78;;;;;;;17.22;49.85;100576.16;1774990;80;20997;-42
2022/05/26 05:22:20;;;;;;;8.05;1.00;;;;;;;17.24;49.37;100557.31;1775017;80;20933;-41
2022/05/26 05:24:54;;;;;;;7.92;0.80;;;;;;;17.36;49.58;100562.93;1775128;80;20983;-41
2022/05/26 05:27:27;;;;;;;20.55;1.27;;;;;;;17.48;48.91;100568.06;1775182;80;21247;-41
2022/05/26 05:29:55;;;;;;;12.25;1.10;;;;;;;17.55;49.21;100559.45;1749134;80;20907;-41
2022/05/26 05:32:27;;;;;;;8.48;0.88;;;;;;;17.62;49.28;100566.13;1775020;80;20983;-41
2022/05/26 05:35:00;;;;;;;8.48;0.90;;;;;;;17.75;49.63;100568.54;1774988;80;20846;-42
2022/05/26 05:37:27;;;;;;;17.65;1.62;;;;;;;17.77;49.10;100563.25;1783739;80;20947;-42
2022/05/26 05:39:54;;;;;;;3.65;0.90;;;;;;;17.72;49.62;100567.38;1755417;80;21168;-42
2022/05/26 05:42:21;;;;;;;7.75;1.00;;;;;;;17.67;49.34;100554.97;1783567;80;20920;-42
2022/05/26 05:44:48;;;;;;;1.95;1.00;;;;;;;17.63;49.49;100556.05;1755421;80;20955;-43
2022/05/26 05:47:15;;;;;;;1.85;0.70;;;;;;;17.70;49.88;100545.66;1783454;80;20913;-43
2022/05/26 05:49:42;;;;;;;3.00;0.93;;;;;;;17.83;49.74;100547.24;1783678;80;21477;-42
2022/05/26 05:52:13;;;;;;;2.98;0.70;;;;;;;17.91;49.36;100544.27;1783591;80;20983;-43
2022/05/26 05:54:41;;;;;;;11.53;1.50;;;;;;;18.09;48.66;100540.80;1755333;80;20857;-43
2022/05/26 05:57:08;;;;;;;7.62;0.85;;;;;;;18.11;48.64;100555.59;1755261;80;20963;-42
2022/05/26 05:59:36;;;;;;;3.85;0.82;;;;;;;18.12;48.23;100541.57;1783659;80;20861;-42
2022/05/26 06:02:03;;;;;;;5.78;0.70;;;;;;;18.12;48.78;100541.57;1783720;80;21374;-42
2022/05/26 06:04:31;;;;;;;4.47;1.40;;;;;;;18.21;49.53;100545.90;1783363;80;21897;-43
2022/05/26 06:06:59;;;;;;;7.53;0.72;;;;;;;18.35;49.77;100539.98;1783487;80;20951;-43
2022/05/26 06:09:26;;;;;;;4.00;0.75;;;;;;;18.50;48.28;100547.98;1783617;80;20979;-43
2022/05/26 06:11:53;;;;;;;3.33;0.88;;;;;;;18.52;48.58;100541.75;1783546;80;21466;-42
2022/05/26 06:14:21;;;;;;;32.60;2.22;;;;;;;18.55;48.79;100534.17;1783557;80;21377;-42
2022/05/26 06:16:47;;;;;;;13.25;1.10;;;;;;;18.53;47.85;100528.16;1783557;79;21144;-42
2022/05/26 06:19:14;;;;;;;67.05;5.10;;;;;;;18.52;47.24;100526.47;1783783;80;20928;-42
2022/05/26 06:21:42;;;;;;;16.60;1.30;;;;;;;18.50;47.59;100524.39;1783404;80;20959;-42
2022/05/26 06:24:10;;;;;;;10.58;2.12;;;;;;;18.53;46.03;100542.58;1783575;80;20901;-43
2022/05/26 06:26:37;;;;;;;15.20;1.57;;;;;;;18.38;44.59;100538.51;1783560;80;20975;-43
2022/05/26 06:37:15;;;;;;;9.73;1.10;;;;;;;17.79;47.63;100543.08;1775260;80;20882;-42
2022/05/26 06:39:42;;;;;;;9.50;1.15;;;;;;;17.69;47.61;100547.89;1775069;80;21007;-42
2022/05/26 06:42:10;;;;;;;10.55;1.27;;;;;;;17.61;47.88;100546.11;1775244;80;21278;-42
2022/05/26 06:44:42;;;;;;;30.65;2.20;;;;;;;17.51;48.52;100541.75;1753615;80;20933;-42
2022/05/26 06:47:12;;;;;;;13.78;1.87;;;;;;;17.46;49.09;100543.27;1774823;80;20983;-42
2022/05/26 06:49:40;;;;;;;15.60;1.65;;;;;;;17.36;49.56;100549.84;1774505;80;20963;-41
2022/05/26 06:52:08;;;;;;;4.40;1.00;;;;;;;17.26;50.23;100548.11;1775051;80;20996;-42
2022/05/26 06:54:39;;;;;;;8.45;1.10;;;;;;;17.27;50.77;100547.62;1774787;80;22149;-42
2022/05/26 06:57:06;;;;;;;7.90;1.52;;;;;;;17.22;51.32;100557.84;1774223;80;20929;-42
2022/05/26 06:59:34;;;;;;;8.90;1.10;;;;;;;17.22;51.47;100562.24;1775083;80;21004;-42
2022/05/26 07:02:01;;;;;;;23.80;2.35;;;;;;;17.19;50.33;100565.83;1774807;80;20987;-42
2022/05/26 07:30:52;;;;;;;47.85;2.90;;;;;;;16.68;54.57;100560.61;1871217;76;22664;-42
2022/05/26 07:33:19;;;;;;;11.90;2.22;;;;;;;16.61;54.42;100562.19;1827511;77;20955;-42
2022/05/26 07:35:46;;;;;;;4.87;1.70;;;;;;;16.59;54.60;100567.94;1827312;78;21202;-42
2022/05/26 07:41:16;;;;;;;9.55;1.70;;;;;;;16.43;55.23;100559.02;1827587;78;20853;-42
2022/05/26 07:43:37;;;;;;;42.73;3.55;;;;;;;16.36;55.54;100566.26;1832349;78;21457;-43
2022/05/26 07:46:04;;;;;;;15.32;2.35;;;;;;;16.32;56.72;100570.78;1827406;78;20884;-44
2022/05/26 07:48:31;;;;;;;2.45;1.90;;;;;;;16.31;56.82;100573.00;1827421;78;21968;-44
2022/05/26 07:50:58;;;;;;;1.55;1.30;;;;;;;16.31;57.00;100575.61;1827446;78;21014;-43
2022/05/26 07:53:25;;;;;;;2.65;1.30;;;;;;;16.32;56.44;100579.92;1827523;78;20947;-44
2022/05/26 07:55:52;;;;;;;1.52;1.40;;;;;;;16.37;56.88;100579.27;1827286;77;20999;-43
2022/05/26 07:58:20;;;;;;;3.42;1.30;;;;;;;16.41;56.82;100568.69;1827641;78;20920;-44
2022/05/26 08:00:47;;;;;;;31.02;3.22;;;;;;;16.42;56.92;100581.70;1827311;78;21037;-44
2022/05/26 08:03:15;;;;;;;14.23;1.90;;;;;;;16.45;56.33;100589.85;1827356;78;21513;-44
2022/05/26 08:05:44;;;;;;;8.85;1.50;;;;;;;16.41;56.55;100588.28;1827294;78;20947;-43
2022/05/26 08:08:11;;;;;;;5.58;1.67;;;;;;;16.42;56.81;100581.70;1827367;78;20912;-43
2022/05/26 08:10:39;;;;;;;8.15;2.12;;;;;;;16.43;57.74;100582.53;1827553;78;22095;-44
2022/05/26 08:13:06;;;;;;;2.35;1.55;;;;;;;16.41;57.77;100590.42;1827305;78;21236;-43
2022/05/26 08:15:34;;;;;;;3.95;1.42;;;;;;;16.38;58.04;100587.50;1827409;78;21519;-44
2022/05/26 08:18:01;;;;;;;40.45;3.67;;;;;;;16.39;58.57;100584.41;1827326;78;20885;-43
2022/05/26 08:20:28;;;;;;;25.05;2.40;;;;;;;16.37;57.83;100580.58;1818156;78;20952;-44
2022/05/26 08:22:55;;;;;;;7.65;1.65;;;;;;;16.40;58.27;100578.75;1818293;79;21448;-43
2022/05/26 08:25:22;;;;;;;5.05;1.60;;;;;;;16.42;57.97;100584.75;1818126;79;21219;-42
2022/05/26 08:27:49;;;;;;;15.15;1.85;;;;;;;16.46;55.50;100583.72;1817945;78;20935;-43
2022/05/26 08:30:16;;;;;;;17.65;2.02;;;;;;;16.49;55.26;100587.06;1827736;78;20891;-43
2022/05/26 08:32:44;;;;;;;11.10;1.92;;;;;;;16.51;54.05;100586.98;1833070;78;20920;-42
2022/05/26 08:35:11;;;;;;;4.40;1.52;;;;;;;16.56;54.36;100581.13;1833159;78;20872;-42
2022/05/26 08:37:38;;;;;;;12.88;1.22;;;;;;;16.56;55.21;100594.20;1833186;78;21044;-42
2022/05/26 08:40:08;;;;;;;7.42;1.22;;;;;;;16.37;54.37;100593.64;1832932;78;20868;-42
2022/05/26 08:42:37;;;;;;;2.70;1.22;;;;;;;16.04;55.91;100591.91;1832662;78;20923;-43
2022/05/26 08:45:11;;;;;;;3.60;1.47;;;;;;;15.63;60.95;100588.64;1832547;78;20967;-43
2022/05/26 08:47:47;;;;;;;9.05;1.62;;;;;;;15.26;63.99;100599.97;1832536;78;21001;-44
2022/05/26 08:50:24;;;;;;;3.40;1.40;;;;;;;14.86;68.02;100581.80;1832558;78;21118;-45
2022/05/26 08:53:16;;;;;;;4.47;1.20;;;;;;;14.51;71.07;100584.65;1832581;78;21532;-43
2022/05/26 08:55:49;;;;;;;6.33;1.82;;;;;;;14.19;74.89;100569.19;1831983;78;20904;-43
2022/05/26 08:58:21;;;;;;;8.90;2.50;;;;;;;13.93;77.08;100560.45;1832486;78;20891;-44
2022/05/26 09:00:50;;;;;;;4.72;1.77;;;;;;;13.76;79.58;100548.39;1831826;78;20864;-44
2022/05/26 09:03:30;;;;;;;1.90;1.70;;;;;;;13.63;82.55;100548.74;1832423;77;21376;-44
2022/05/26 09:06:12;;;;;;;4.45;1.70;;;;;;;13.52;84.98;100549.98;1832361;78;20891;-44
2022/05/26 09:14:31;;;;;;;3.15;1.60;;;;;;;13.20;90.84;100555.17;1832617;78;20912;-44
2022/05/26 09:17:02;;;;;;;2.55;1.52;;;;;;;13.11;92.16;100551.50;1832599;78;21292;-44
2022/05/26 09:19:46;;;;;;;6.03;1.90;;;;;;;13.06;92.79;100563.34;1832223;78;20872;-44
2022/05/26 09:22:42;;;;;;;6.25;1.55;;;;;;;13.01;94.15;100574.28;1832391;78;21469;-43
2022/05/26 09:25:36;;;;;;;1.90;1.50;;;;;;;12.96;95.42;100564.47;1832625;78;20891;-43
2022/05/26 09:28:04;;;;;;;3.58;2.15;;;;;;;12.89;96.73;100551.64;1832477;78;20899;-44
2022/05/26 09:30:33;;;;;;;5.08;1.70;;;;;;;12.82;97.24;100560.94;1823143;78;21867;-44
2022/05/26 09:33:00;;;;;;;2.42;1.62;;;;;;;12.77;98.67;100563.21;1817355;79;20849;-44
2022/05/26 09:35:30;;;;;;;2.17;1.72;;;;;;;12.71;99.90;100556.88;1817526;79;20884;-44
2022/05/26 09:38:02;;;;;;;1.90;1.47;;;;;;;12.69;100.00;100561.70;1817313;78;20924;-44
2022/05/26 09:40:35;;;;;;;2.50;1.37;;;;;;;12.67;100.00;100566.08;1817350;78;20908;-44
2022/05/26 09:43:18;;;;;;;1.72;1.40;;;;;;;12.66;100.00;100561.34;1817464;78;21739;-44
2022/05/26 09:45:53;;;;;;;2.58;1.80;;;;;;;12.67;100.00;100569.55;1817299;79;20904;-44
2022/05/26 09:48:30;;;;;;;4.83;1.57;;;;;;;12.65;100.00;100568.27;1817476;79;21002;-44
2022/05/26 09:51:30;;;;;;;3.77;1.60;;;;;;;12.63;100.00;100576.98;1817396;79;21363;-44
2022/05/26 09:53:56;;;;;;;2.15;1.15;;;;;;;12.60;100.00;100570.56;1817377;78;20869;-44
2022/05/26 09:56:42;;;;;;;2.65;1.05;;;;;;;12.61;100.00;100564.48;1817455;79;21841;-44
2022/05/26 09:59:33;;;;;;;3.62;1.30;;;;;;;12.64;100.00;100565.73;1817541;77;21433;-45
2022/05/26 10:02:23;;;;;;;3.95;1.10;;;;;;;12.69;100.00;100555.20;1817558;79;20869;-44
2022/05/26 10:05:17;;;;;;;1.50;1.17;;;;;;;12.73;100.00;100563.31;1802541;79;20880;-44
2022/05/26 10:08:05;;;;;;;3.22;1.30;;;;;;;12.75;100.00;100555.91;1817369;79;20959;-44
2022/05/26 10:10:47;;;;;;;4.53;1.35;;;;;;;12.78;100.00;100560.18;1817494;79;21250;-44
2022/05/26 10:14:02;;;;;;;2.08;1.47;;;;;;;12.76;100.00;100560.67;1817301;79;20948;-44
2022/05/26 10:16:54;;;;;;;3.67;1.17;;;;;;;12.73;100.00;100549.91;1817319;78;20884;-44
2022/05/26 10:20:10;;;;;;;4.40;1.37;;;;;;;12.73;100.00;100553.80;1817653;78;20969;-44
2022/05/26 10:23:17;;;;;;;1.12;1.02;;;;;;;12.73;100.00;100551.63;1817621;78;21015;-45
2022/05/26 10:26:19;;;;;;;1.47;0.95;;;;;;;12.73;100.00;100546.00;1817254;78;21220;-44
2022/05/26 10:28:54;;;;;;;3.87;0.90;;;;;;;12.76;100.00;100545.92;1817164;78;20960;-44
2022/05/26 10:31:35;;;;;;;2.37;1.20;;;;;;;12.74;100.00;100558.09;1816293;78;20963;-44
2022/05/26 10:34:27;;;;;;;2.33;1.10;;;;;;;12.72;100.00;100561.61;1817227;79;21006;-44
2022/05/26 10:37:23;;;;;;;2.40;0.98;;;;;;;12.70;100.00;100556.48;1817445;78;20924;-44
2022/05/26 10:40:09;;;;;;;0.90;0.90;;;;;;;12.68;100.00;100562.59;1817441;79;20864;-44
2022/05/26 10:42:40;;;;;;;4.45;1.00;;;;;;;12.62;100.00;100553.20;1817511;78;20912;-44
2022/05/26 10:45:27;;;;;;;2.52;1.07;;;;;;;12.60;100.00;100557.16;1817463;79;20987;-44
2022/05/26 10:48:07;;;;;;;2.30;1.07;;;;;;;12.58;100.00;100563.27;1785869;79;20880;-44
2022/05/26 10:50:41;;;;;;;5.40;1.02;;;;;;;12.55;100.00;100555.13;1817441;79;20947;-44
2022/05/26 10:53:23;;;;;;;3.52;0.95;;;;;;;12.55;100.00;100564.64;1817358;77;21379;-43
2022/05/26 10:55:57;;;;;;;4.85;1.07;;;;;;;12.56;100.00;100562.45;1817431;79;20833;-44
2022/05/26 10:58:33;;;;;;;1.22;0.65;;;;;;;12.55;100.00;100559.45;1817486;77;20888;-44
2022/05/26 11:01:04;;;;;;;4.47;0.90;;;;;;;12.49;100.00;100557.84;1817281;78;20911;-45
2022/05/26 11:03:36;;;;;;;2.22;1.00;;;;;;;12.42;100.00;100552.41;1817358;79;21069;-44
2022/05/26 11:06:12;;;;;;;3.05;1.05;;;;;;;12.37;100.00;100548.63;1816536;79;21280;-44
2022/05/26 11:08:51;;;;;;;4.72;1.12;;;;;;;12.34;100.00;100547.40;1816627;79;20952;-43
2022/05/26 11:11:23;;;;;;;1.95;1.17;;;;;;;12.33;100.00;100553.48;1817395;79;20899;-44
2022/05/26 11:13:57;;;;;;;1.30;0.90;;;;;;;12.34;100.00;100553.89;1817375;79;21513;-44
2022/05/26 11:19:44;;;;;;;1.90;1.07;;;;;;;12.34;100.00;100556.05;1817280;79;21362;-45
2022/05/26 11:22:13;;;;;;;1.92;1.00;;;;;;;12.37;100.00;100549.92;1816065;79;20963;-45
2022/05/26 11:24:40;;;;;;;2.33;0.98;;;;;;;12.35;100.00;100547.80;1817523;79;21449;-45
2022/05/26 11:27:21;;;;;;;1.12;0.90;;;;;;;12.35;100.00;100549.10;1817271;78;20877;-45
2022/05/26 11:30:01;;;;;;;2.22;1.35;;;;;;;12.36;100.00;100545.62;1817826;78;21527;-45
2022/05/26 11:38:16;;;;;;;3.15;0.90;;;;;;;12.42;100.00;100542.02;1823870;78;21390;-45
2022/05/26 11:40:50;;;;;;;3.00;1.05;;;;;;;12.46;100.00;100537.16;1823728;78;21532;-45
2022/05/26 11:43:25;;;;;;;1.17;1.00;;;;;;;12.53;100.00;100536.14;1823620;78;20955;-45
2022/05/26 11:45:53;;;;;;;0.82;0.82;;;;;;;12.59;100.00;100532.08;1823839;78;21797;-44
2022/05/26 11:48:41;;;;;;;2.15;1.00;;;;;;;12.60;100.00;100536.81;1823806;78;20951;-45
2022/05/26 11:51:42;;;;;;;1.37;1.07;;;;;;;12.63;100.00;100537.59;1823661;78;20951;-45
2022/05/26 11:54:09;;;;;;;2.33;1.10;;;;;;;12.67;100.00;100526.69;1823553;78;21537;-44
2022/05/26 11:56:40;;;;;;;3.12;1.05;;;;;;;12.70;100.00;100530.51;1823851;78;20928;-45
2022/05/26 11:59:34;;;;;;;3.87;1.10;;;;;;;12.70;100.00;100540.02;1823551;78;22073;-45
2022/05/26 12:02:14;;;;;;;1.72;0.80;;;;;;;12.75;100.00;100522.57;1823721;78;20986;-45
2022/05/26 12:04:49;;;;;;;6.03;1.10;;;;;;;12.78;100.00;100535.50;1823289;78;21540;-44
2022/05/26 12:07:22;;;;;;;1.25;0.82;;;;;;;12.78;100.00;100531.15;1823734;78;20955;-45
2022/05/26 12:09:52;;;;;;;5.67;1.50;;;;;;;12.84;100.00;100532.73;1823752;78;20966;-45
2022/05/26 12:12:27;;;;;;;1.05;0.93;;;;;;;12.87;100.00;100529.19;1823646;78;21862;-45
2022/05/26 12:15:20;;;;;;;2.70;0.88;;;;;;;12.85;100.00;100530.97;1823742;78;28495;-45
2022/05/26 12:17:52;;;;;;;1.65;0.90;;;;;;;12.84;100.00;100531.44;1823345;78;20935;-45
2022/05/26 12:20:24;;;;;;;2.15;0.93;;;;;;;12.88;100.00;100530.45;1796803;78;20995;-45
2022/05/26 12:22:57;;;;;;;2.37;1.17;;;;;;;12.90;100.00;100535.63;1823876;78;21544;-45
2022/05/26 12:43:31;;;;;;;3.65;1.57;;;;;;;12.99;100.00;100516.31;1802877;79;22139;-45
2022/05/26 12:46:30;;;;;;;2.55;1.20;;;;;;;12.94;100.00;100517.76;1758008;81;20980;-45
2022/05/26 12:49:18;;;;;;;2.42;1.20;;;;;;;12.98;100.00;100519.80;1737740;81;21194;-45
2022/05/26 12:51:45;;;;;;;3.33;1.10;;;;;;;13.04;100.00;100519.66;1757749;81;20928;-45
2022/05/26 12:54:17;;;;;;;3.77;1.12;;;;;;;13.10;100.00;100523.81;1758197;81;21508;-45
2022/05/26 12:56:54;;;;;;;4.12;1.00;;;;;;;13.18;100.00;100524.01;1729837;81;20983;-45
2022/05/26 12:59:29;;;;;;;2.08;0.98;;;;;;;13.25;100.00;100527.72;1728892;81;21050;-43
2022/05/26 13:01:56;;;;;;;6.70;1.30;;;;;;;13.31;100.00;100527.57;1758129;81;21729;-45
2022/05/26 13:04:32;;;;;;;1.47;1.00;;;;;;;13.39;100.00;100528.19;1758063;81;20929;-45
2022/05/26 13:06:59;;;;;;;2.02;0.90;;;;;;;13.48;100.00;100527.11;1757820;80;21462;-46
2022/05/26 13:09:31;;;;;;;2.42;1.02;;;;;;;13.58;100.00;100515.98;1757898;80;21014;-45
2022/05/26 13:12:00;;;;;;;1.37;0.80;;;;;;;13.68;100.00;100520.00;1757959;80;20936;-46